Time;durP1;ratioP1;P1;durP2;ratioP2;P2;SDS_P1;SDS_P2;PMS_P1;PMS_P2;Temp;Humidity;BMP_temperature;BMP_pressure;BME280_temperature;BME280_humidity;BME280_pressure;Samples;Min_cycle;Max_cycle;Signal;HPM_P1;HPM_P2
2023/10/10 00:01:03;;;;;;;15.48;6.68;;;;;14.30;99114.00;;;;5054435;28;20677;-63
2023/10/10 00:03:32;;;;;;;10.43;6.57;;;;;14.40;99109.00;;;;5053703;28;20064;-62
2023/10/10 00:05:59;;;;;;;13.07;7.13;;;;;14.30;99115.00;;;;5054322;28;20053;-62
2023/10/10 00:08:43;;;;;;;13.13;6.78;;;;;14.20;99116.00;;;;5054207;28;20092;-62
2023/10/10 00:11:18;;;;;;;13.25;7.22;;;;;14.30;99117.00;;;;5054538;28;20061;-60
2023/10/10 00:13:58;;;;;;;17.38;8.18;;;;;14.30;99126.00;;;;5052442;28;20139;-62
2023/10/10 00:16:26;;;;;;;17.13;7.63;;;;;14.40;99122.00;;;;5054216;28;20052;-63
2023/10/10 00:18:56;;;;;;;12.57;7.40;;;;;14.40;99131.00;;;;5052658;28;20059;-63
2023/10/10 00:21:28;;;;;;;14.55;7.25;;;;;14.30;99129.00;;;;5053986;28;20040;-63
2023/10/10 00:23:55;;;;;;;13.57;7.40;;;;;14.20;99133.00;;;;5053657;28;20041;-61
2023/10/10 00:26:22;;;;;;;14.32;8.57;;;;;14.30;99121.00;;;;5053677;28;20101;-61
2023/10/10 00:28:57;;;;;;;20.58;10.50;;;;;14.30;99130.00;;;;5053720;28;20037;-60
2023/10/10 00:31:26;;;;;;;14.93;7.70;;;;;14.30;99121.00;;;;5052521;28;20060;-61
2023/10/10 00:33:55;;;;;;;14.30;7.80;;;;;14.20;99121.00;;;;5051938;28;20132;-61
2023/10/10 00:36:27;;;;;;;14.68;7.18;;;;;14.20;99126.00;;;;5053536;28;20098;-61
2023/10/10 00:38:58;;;;;;;13.80;7.05;;;;;14.10;99118.00;;;;5035951;28;20399;-61
2023/10/10 00:41:26;;;;;;;16.58;7.45;;;;;14.00;99123.00;;;;5052167;28;20048;-61
2023/10/10 00:43:53;;;;;;;14.10;8.25;;;;;13.90;99124.00;;;;5052784;28;20479;-61
2023/10/10 00:46:24;;;;;;;14.63;8.13;;;;;13.90;99119.00;;;;5052025;28;20214;-59
2023/10/10 00:48:59;;;;;;;13.38;7.20;;;;;13.90;99114.00;;;;5052140;28;20413;-60
2023/10/10 00:51:29;;;;;;;11.20;7.03;;;;;13.80;99107.00;;;;5052123;28;20053;-61
2023/10/10 00:54:26;;;;;;;11.43;7.07;;;;;13.80;99112.00;;;;5052756;28;20506;-61
2023/10/10 00:56:56;;;;;;;11.27;6.55;;;;;13.80;99109.00;;;;5053157;28;20041;-61
2023/10/10 00:59:43;;;;;;;10.73;6.10;;;;;13.70;99101.00;;;;5053121;28;20469;-61
2023/10/10 01:02:11;;;;;;;11.00;6.38;;;;;13.70;99105.00;;;;5051802;28;20052;-61
2023/10/10 01:04:39;;;;;;;14.93;7.22;;;;;13.60;99101.00;;;;5052416;28;20049;-61
2023/10/10 01:07:07;;;;;;;13.73;6.72;;;;;13.60;99095.00;;;;5052878;28;20048;-61
2023/10/10 01:09:53;;;;;;;14.93;6.68;;;;;13.60;99096.00;;;;5051759;28;20047;-61
2023/10/10 01:12:20;;;;;;;11.18;6.32;;;;;13.60;99096.00;;;;5051800;28;20045;-63
2023/10/10 01:14:47;;;;;;;12.32;7.07;;;;;13.60;99094.00;;;;5052472;28;20074;-62
2023/10/10 01:17:13;;;;;;;13.95;6.65;;;;;13.80;99092.00;;;;5052826;28;20167;-63
2023/10/10 01:19:44;;;;;;;13.52;6.22;;;;;13.80;99083.00;;;;5051479;28;20073;-62
2023/10/10 01:22:22;;;;;;;8.43;5.93;;;;;13.70;99091.00;;;;5052743;28;20486;-63
2023/10/10 01:24:54;;;;;;;10.48;6.85;;;;;13.60;99075.00;;;;5050939;28;20056;-61
2023/10/10 01:27:21;;;;;;;12.75;7.32;;;;;13.50;99088.00;;;;5052375;28;20490;-62
2023/10/10 01:30:17;;;;;;;11.18;6.45;;;;;13.40;99078.00;;;;5052681;28;20056;-60
2023/10/10 01:32:39;;;;;;;13.07;6.40;;;;;13.40;99082.00;;;;5051190;28;20051;-60
2023/10/10 01:35:16;;;;;;;14.60;7.75;;;;;13.40;99080.00;;;;5050681;28;20477;-61
2023/10/10 01:37:54;;;;;;;9.52;6.20;;;;;13.30;99076.00;;;;5052551;28;20049;-62
2023/10/10 01:40:23;;;;;;;13.32;7.10;;;;;13.30;99083.00;;;;5034581;28;20069;-61
2023/10/10 01:42:59;;;;;;;11.38;6.28;;;;;13.10;99076.00;;;;5051028;28;20132;-62
2023/10/10 01:45:27;;;;;;;12.48;7.18;;;;;13.10;99069.00;;;;5050614;28;20041;-62
2023/10/10 01:47:57;;;;;;;13.85;6.65;;;;;13.00;99079.00;;;;5052643;28;20040;-63
2023/10/10 01:50:26;;;;;;;13.38;6.40;;;;;13.00;99073.00;;;;5052006;28;20048;-62
2023/10/10 01:52:55;;;;;;;11.45;5.88;;;;;13.00;99075.00;;;;5052413;28;20039;-63
2023/10/10 01:55:26;;;;;;;9.95;6.68;;;;;13.00;99067.00;;;;5051740;28;20045;-63
2023/10/10 01:57:55;;;;;;;14.65;7.10;;;;;13.00;99073.00;;;;5050867;28;20041;-63
2023/10/10 02:00:25;;;;;;;9.55;5.97;;;;;13.10;99072.00;;;;5052229;28;20041;-62
2023/10/10 02:02:55;;;;;;;14.15;7.68;;;;;13.10;99076.00;;;;5050939;28;20498;-63
2023/10/10 02:05:45;;;;;;;14.30;6.50;;;;;13.20;99072.00;;;;5050193;28;20044;-64
2023/10/10 02:08:16;;;;;;;12.52;5.85;;;;;13.20;99064.00;;;;5052011;28;20045;-63
2023/10/10 02:10:46;;;;;;;13.15;6.72;;;;;13.20;99072.00;;;;5052196;28;20460;-63
2023/10/10 02:13:14;;;;;;;11.23;6.75;;;;;13.20;99063.00;;;;5050537;28;20151;-63
2023/10/10 02:15:41;;;;;;;11.02;6.63;;;;;13.10;99069.00;;;;5049919;28;20053;-64
2023/10/10 02:18:23;;;;;;;12.70;5.97;;;;;13.10;99065.00;;;;5050520;28;20056;-64
2023/10/10 02:20:51;;;;;;;9.07;5.68;;;;;13.10;99064.00;;;;5051866;28;20049;-63
2023/10/10 02:23:34;;;;;;;12.10;6.75;;;;;13.10;99066.00;;;;5050527;28;20442;-64
2023/10/10 02:26:14;;;;;;;13.95;6.22;;;;;13.00;99063.00;;;;5051980;28;20048;-63
2023/10/10 02:28:48;;;;;;;9.98;6.00;;;;;13.00;99070.00;;;;5050610;28;20045;-64
2023/10/10 02:31:16;;;;;;;12.40;6.68;;;;;12.90;99064.00;;;;5050623;28;20417;-64
2023/10/10 02:33:51;;;;;;;10.50;6.22;;;;;12.90;99069.00;;;;5049895;28;20075;-63
2023/10/10 02:36:30;;;;;;;11.45;6.45;;;;;12.90;99067.00;;;;5034109;28;20053;-64
2023/10/10 02:39:11;;;;;;;13.60;6.10;;;;;13.00;99057.00;;;;5052055;28;20040;-64
2023/10/10 02:41:38;;;;;;;13.60;6.88;;;;;13.00;99064.00;;;;5051863;28;20509;-63
2023/10/10 02:44:09;;;;;;;11.65;6.47;;;;;12.90;99064.00;;;;5051142;28;20037;-63
2023/10/10 02:46:38;;;;;;;10.90;6.45;;;;;12.90;99054.00;;;;5050562;28;20541;-63
2023/10/10 02:49:13;;;;;;;15.45;6.63;;;;;12.80;99059.00;;;;5050735;28;20067;-64
2023/10/10 02:51:48;;;;;;;10.38;6.63;;;;;12.80;99064.00;;;;5051793;28;20049;-63
2023/10/10 02:54:29;;;;;;;12.13;6.57;;;;;12.80;99058.00;;;;5049809;28;20042;-63
2023/10/10 02:56:58;;;;;;;9.90;6.28;;;;;12.80;99058.00;;;;5051729;28;20041;-63
2023/10/10 02:59:31;;;;;;;13.68;7.00;;;;;12.70;99058.00;;;;5050407;28;20037;-64
2023/10/10 03:01:59;;;;;;;13.10;6.00;;;;;12.70;99057.00;;;;5053656;28;20072;-64
2023/10/10 03:04:52;;;;;;;12.13;7.32;;;;;12.70;99056.00;;;;5053459;28;20528;-64
2023/10/10 03:07:29;;;;;;;13.65;6.45;;;;;12.70;99064.00;;;;5053897;28;20132;-64
2023/10/10 03:12:31;;;;;;;10.75;6.57;;;;;12.70;99066.00;;;;5053734;28;20090;-63
2023/10/10 03:15:50;;;;;;;11.40;6.50;;;;;12.60;99056.00;;;;5053159;28;20095;-63
2023/10/10 03:23:32;;;;;;;18.05;6.75;;;;;12.60;99053.00;;;;5053731;28;20037;-64
2023/10/10 05:23:34;;;;;;;13.00;6.97;;;;;12.00;99038.00;;;;5051793;28;20449;-62
2023/10/10 05:26:05;;;;;;;12.03;6.63;;;;;11.90;99038.00;;;;5052820;28;20055;-62
2023/10/10 05:28:32;;;;;;;13.70;6.78;;;;;11.90;99043.00;;;;5052616;28;20094;-62
2023/10/10 05:31:02;;;;;;;12.90;7.38;;;;;11.90;99035.00;;;;5051722;28;20068;-61
2023/10/10 05:33:30;;;;;;;11.95;7.47;;;;;11.80;99033.00;;;;5052150;28;20075;-63
2023/10/10 05:35:58;;;;;;;12.55;7.60;;;;;11.70;99041.00;;;;5052695;28;20486;-61
2023/10/10 05:38:25;;;;;;;13.25;7.00;;;;;11.60;99049.00;;;;5051118;28;20685;-61
2023/10/10 05:40:53;;;;;;;13.88;6.88;;;;;11.60;99044.00;;;;5052412;28;20041;-61
2023/10/10 05:43:26;;;;;;;12.15;6.85;;;;;11.60;99047.00;;;;5052236;28;20037;-62
2023/10/10 05:45:56;;;;;;;12.48;6.93;;;;;11.60;99042.00;;;;5052218;28;20045;-61
2023/10/10 05:48:23;;;;;;;13.07;6.15;;;;;11.60;99041.00;;;;5052259;28;20041;-63
2023/10/10 05:50:50;;;;;;;14.70;7.13;;;;;11.60;99042.00;;;;5051029;28;20049;-62
2023/10/10 05:53:18;;;;;;;12.43;6.78;;;;;11.70;99033.00;;;;5052473;28;20098;-60
2023/10/10 05:55:50;;;;;;;13.18;7.78;;;;;11.70;99036.00;;;;5050351;28;20057;-60
2023/10/10 05:58:18;;;;;;;14.75;7.05;;;;;11.70;99039.00;;;;5050961;28;20037;-61
2023/10/10 06:00:48;;;;;;;10.75;6.68;;;;;11.60;99040.00;;;;5050866;28;20126;-62
2023/10/10 06:03:18;;;;;;;14.38;7.50;;;;;11.60;99035.00;;;;5050745;28;20099;-61
2023/10/10 06:05:45;;;;;;;14.80;7.10;;;;;11.60;99041.00;;;;5050225;28;20094;-61
2023/10/10 06:08:12;;;;;;;10.65;5.78;;;;;11.70;99037.00;;;;5052108;28;20055;-63
2023/10/10 06:10:39;;;;;;;13.35;6.82;;;;;11.70;99055.00;;;;5054944;28;20044;-63
2023/10/10 06:13:06;;;;;;;15.73;6.45;;;;;11.80;99054.00;;;;5053493;28;20044;-63
2023/10/10 06:15:34;;;;;;;14.38;7.28;;;;;11.90;99057.00;;;;5051676;28;20552;-63
2023/10/10 06:18:18;;;;;;;12.10;7.22;;;;;11.90;99055.00;;;;5051859;28;20049;-65
2023/10/10 06:20:47;;;;;;;13.53;6.77;;;;;12.00;99059.00;;;;5050969;28;20072;-64
2023/10/10 06:23:35;;;;;;;10.68;6.50;;;;;12.00;99067.00;;;;5052871;28;20041;-63
2023/10/10 06:26:06;;;;;;;12.85;6.32;;;;;12.00;99061.00;;;;5052242;28;20107;-63
2023/10/10 06:28:44;;;;;;;11.55;6.60;;;;;12.10;99058.00;;;;5050722;28;20133;-62
2023/10/10 06:31:27;;;;;;;15.38;6.63;;;;;12.20;99068.00;;;;5052068;28;20055;-64
2023/10/10 06:33:57;;;;;;;12.93;6.38;;;;;12.30;99060.00;;;;5051575;28;20045;-64
2023/10/10 06:41:40;;;;;;;14.43;6.45;;;;;12.40;99057.00;;;;5056558;28;20041;-62
2023/10/10 06:44:13;;;;;;;12.75;6.90;;;;;12.40;99058.00;;;;5055306;28;20044;-64
2023/10/10 06:46:46;;;;;;;13.57;5.60;;;;;12.40;99057.00;;;;5054570;28;20049;-62
2023/10/10 06:49:14;;;;;;;17.25;7.35;;;;;12.50;99059.00;;;;5055920;28;20088;-63
2023/10/10 06:51:40;;;;;;;13.75;7.22;;;;;12.60;99058.00;;;;5054571;28;20041;-63
2023/10/10 06:54:19;;;;;;;14.55;8.90;;;;;12.60;99053.00;;;;5055105;28;20124;-63
2023/10/10 06:59:27;;;;;;;12.45;6.60;;;;;12.80;99061.00;;;;5055696;28;20037;-63
2023/10/10 07:01:59;;;;;;;21.40;10.27;;;;;12.90;99070.00;;;;5055661;28;20053;-63
2023/10/10 07:04:27;;;;;;;16.02;7.75;;;;;13.00;99067.00;;;;5054908;28;20037;-62
2023/10/10 07:07:00;;;;;;;14.02;7.13;;;;;13.10;99073.00;;;;5054289;28;20072;-63
2023/10/10 07:09:27;;;;;;;14.45;6.93;;;;;13.20;99065.00;;;;5055662;28;20037;-63
2023/10/10 07:12:10;;;;;;;16.73;7.90;;;;;13.30;99072.00;;;;5055558;28;20079;-63
2023/10/10 07:14:45;;;;;;;14.07;6.93;;;;;13.40;99070.00;;;;5054685;28;20041;-64
2023/10/10 07:17:13;;;;;;;13.23;6.78;;;;;13.60;99078.00;;;;5055136;28;20273;-63
2023/10/10 07:22:33;;;;;;;16.25;6.88;;;;;14.00;99077.00;;;;5055225;28;20079;-63
2023/10/10 07:25:07;;;;;;;15.10;6.85;;;;;14.10;99077.00;;;;5054923;28;20047;-64
2023/10/10 07:27:35;;;;;;;12.63;6.38;;;;;14.30;99082.00;;;;5053923;28;20044;-62
2023/10/10 07:30:19;;;;;;;14.38;6.88;;;;;14.50;99078.00;;;;5055054;28;20390;-62
2023/10/10 07:32:50;;;;;;;14.13;6.68;;;;;14.50;99085.00;;;;5055011;28;20067;-62
2023/10/10 07:35:25;;;;;;;15.35;6.95;;;;;14.50;99085.00;;;;5054473;28;20041;-62
2023/10/10 07:37:52;;;;;;;15.45;7.93;;;;;14.50;99080.00;;;;5054844;28;20114;-63
2023/10/10 07:40:20;;;;;;;13.13;6.95;;;;;14.50;99078.00;;;;5054816;28;20517;-62
2023/10/10 07:42:50;;;;;;;15.77;7.22;;;;;14.70;99085.00;;;;5054769;28;20056;-63
2023/10/10 07:45:28;;;;;;;15.57;7.20;;;;;14.90;99082.00;;;;5054080;28;20116;-64
2023/10/10 07:50:34;;;;;;;14.85;7.65;;;;;15.10;99079.00;;;;5053292;28;20084;-63
2023/10/10 07:53:06;;;;;;;14.00;7.35;;;;;15.30;99078.00;;;;5054712;28;20445;-64
2023/10/10 07:55:50;;;;;;;14.10;7.45;;;;;15.40;99079.00;;;;5054249;28;20401;-63
2023/10/10 07:58:17;;;;;;;18.35;7.40;;;;;15.50;99076.00;;;;5053298;28;20068;-63
2023/10/10 08:00:44;;;;;;;14.05;7.50;;;;;15.40;99069.00;;;;5054537;28;20047;-63
2023/10/10 08:03:20;;;;;;;15.20;7.60;;;;;15.40;99078.00;;;;5052976;28;20088;-61
2023/10/10 08:05:50;;;;;;;14.18;6.97;;;;;15.40;99069.00;;;;5053614;28;20478;-63
2023/10/10 08:08:17;;;;;;;15.63;7.60;;;;;15.50;99062.00;;;;5054126;28;20115;-63
2023/10/10 08:10:49;;;;;;;20.42;7.25;;;;;15.60;99067.00;;;;5054171;28;20502;-63
2023/10/10 08:13:16;;;;;;;15.00;7.60;;;;;15.70;99061.00;;;;5054204;28;20045;-63
2023/10/10 08:15:56;;;;;;;14.75;8.68;;;;;15.90;99061.00;;;;5053529;28;20052;-64
2023/10/10 08:18:49;;;;;;;15.27;7.47;;;;;16.00;99065.00;;;;5054036;28;20506;-63
2023/10/10 08:21:17;;;;;;;18.45;8.05;;;;;16.10;99070.00;;;;5054081;28;20457;-63
2023/10/10 08:23:46;;;;;;;16.60;9.00;;;;;16.30;99067.00;;;;5053234;28;20045;-63
2023/10/10 08:26:24;;;;;;;13.80;8.63;;;;;16.40;99065.00;;;;5053807;28;20095;-62
2023/10/10 08:28:52;;;;;;;19.52;10.13;;;;;16.60;99064.00;;;;5052875;28;20387;-63
2023/10/10 08:31:19;;;;;;;17.55;8.52;;;;;16.70;99072.00;;;;5053857;28;20053;-63
2023/10/10 08:33:46;;;;;;;19.58;8.90;;;;;16.80;99073.00;;;;5053158;28;20102;-64
2023/10/10 08:36:23;;;;;;;19.70;9.82;;;;;16.80;99075.00;;;;5053811;28;20037;-63
2023/10/10 08:38:53;;;;;;;18.08;8.40;;;;;16.90;99073.00;;;;5053778;28;20128;-63
2023/10/10 08:41:38;;;;;;;14.65;8.55;;;;;17.00;99075.00;;;;5053635;28;20059;-63
2023/10/10 08:44:09;;;;;;;17.42;8.05;;;;;17.00;99081.00;;;;5052986;28;20072;-63
2023/10/10 08:46:48;;;;;;;13.73;7.88;;;;;17.10;99071.00;;;;5053438;28;20048;-64
2023/10/10 08:49:16;;;;;;;16.58;8.63;;;;;17.30;99074.00;;;;5053451;28;20033;-64
2023/10/10 08:51:44;;;;;;;24.95;8.38;;;;;17.50;99077.00;;;;5053416;28;20045;-64
2023/10/10 08:54:15;;;;;;;18.15;8.95;;;;;17.60;99069.00;;;;5052653;28;20444;-63
2023/10/10 08:56:59;;;;;;;13.95;7.53;;;;;17.70;99083.00;;;;5053179;28;20490;-64
2023/10/10 08:59:30;;;;;;;18.70;6.97;;;;;17.90;99086.00;;;;5050971;28;20517;-63
2023/10/10 09:02:06;;;;;;;14.95;7.80;;;;;18.00;99090.00;;;;5053419;28;20401;-64
2023/10/10 09:04:35;;;;;;;14.18;6.78;;;;;18.10;99093.00;;;;5052771;28;20052;-64
2023/10/10 09:07:08;;;;;;;16.08;7.35;;;;;18.30;99093.00;;;;5053147;28;20041;-64
2023/10/10 09:09:39;;;;;;;15.48;7.38;;;;;18.40;99099.00;;;;5053346;28;20045;-65
2023/10/10 09:12:14;;;;;;;14.35;7.18;;;;;18.50;99102.00;;;;5052111;28;20393;-65
2023/10/10 09:14:43;;;;;;;16.90;7.53;;;;;18.60;99094.00;;;;5052516;28;20048;-64
2023/10/10 09:17:28;;;;;;;13.57;6.75;;;;;18.70;99097.00;;;;5052921;28;20133;-64
2023/10/10 09:19:58;;;;;;;16.20;6.68;;;;;18.90;99093.00;;;;5051817;28;20056;-64
2023/10/10 09:22:44;;;;;;;21.02;7.05;;;;;19.00;99092.00;;;;5052859;28;20083;-64
2023/10/10 09:25:31;;;;;;;14.60;6.20;;;;;19.10;99088.00;;;;5052591;28;20045;-63
2023/10/10 09:28:04;;;;;;;15.65;6.75;;;;;19.30;99100.00;;;;5051819;28;20041;-64
2023/10/10 09:30:33;;;;;;;11.52;6.30;;;;;19.40;99096.00;;;;5052992;28;20048;-64
2023/10/10 09:33:22;;;;;;;13.13;7.43;;;;;19.60;99099.00;;;;5052867;28;20116;-64
2023/10/10 09:36:19;;;;;;;16.77;6.72;;;;;19.70;99101.00;;;;5052405;28;20041;-64
2023/10/10 09:38:47;;;;;;;10.77;5.72;;;;;19.90;99094.00;;;;5035014;28;20095;-64
2023/10/10 09:41:37;;;;;;;12.68;6.97;;;;;20.10;99094.00;;;;5051296;28;20043;-63
2023/10/10 09:55:42;;;;;;;12.95;6.50;;;;;21.10;99094.00;;;;5036845;28;20049;-63
2023/10/10 10:06:06;;;;;;;18.65;6.57;;;;;21.40;99081.00;;;;5052105;28;20072;-65
2023/10/10 10:08:42;;;;;;;11.02;6.35;;;;;21.50;99089.00;;;;5052048;28;20080;-64
2023/10/10 10:11:28;;;;;;;12.35;5.95;;;;;21.60;99087.00;;;;5051791;28;20052;-63
2023/10/10 10:14:12;;;;;;;13.23;6.20;;;;;21.80;99086.00;;;;5051667;28;20468;-63
2023/10/10 10:16:53;;;;;;;14.30;5.80;;;;;21.90;99083.00;;;;5050883;28;20099;-62
2023/10/10 10:19:22;;;;;;;10.45;5.55;;;;;22.00;99088.00;;;;5052115;28;20119;-64
2023/10/10 10:22:42;;;;;;;13.45;5.65;;;;;22.20;99085.00;;;;5052224;28;20136;-64
2023/10/10 10:24:48;;;;;;;14.80;6.43;;;;;22.20;99090.00;;;;5050941;28;20076;-64
2023/10/10 10:27:34;;;;;;;16.30;6.72;;;;;22.30;99089.00;;;;5051878;28;20060;-63
2023/10/10 10:32:47;;;;;;;10.32;5.80;;;;;22.50;99086.00;;;;5050634;28;20402;-62
2023/10/10 10:35:36;;;;;;;12.45;5.80;;;;;22.40;99077.00;;;;5051180;28;20647;-63
2023/10/10 10:38:06;;;;;;;11.90;5.78;;;;;22.40;99081.00;;;;5051868;28;20061;-63
2023/10/10 10:43:14;;;;;;;17.42;6.15;;;;;22.40;99089.00;;;;5050416;28;20079;-62
2023/10/10 10:45:51;;;;;;;12.20;6.47;;;;;22.50;99086.00;;;;5049944;28;20068;-63
2023/10/10 10:48:33;;;;;;;15.90;6.32;;;;;22.50;99083.00;;;;5051787;28;20120;-62
2023/10/10 10:51:26;;;;;;;11.55;6.47;;;;;22.70;99080.00;;;;5050783;28;20421;-62
2023/10/10 10:54:02;;;;;;;11.60;5.78;;;;;22.80;99083.00;;;;5051070;28;20132;-63
2023/10/10 10:59:12;;;;;;;21.55;6.57;;;;;22.90;99078.00;;;;5051618;28;20041;-63
2023/10/10 11:01:57;;;;;;;11.95;5.95;;;;;23.00;99070.00;;;;5051603;28;20045;-63
2023/10/10 11:04:47;;;;;;;11.30;5.28;;;;;23.00;99070.00;;;;5050850;28;20507;-62
2023/10/10 11:07:40;;;;;;;10.55;6.07;;;;;23.10;99065.00;;;;5050187;28;20501;-62
2023/10/10 11:10:08;;;;;;;12.07;6.03;;;;;23.20;99064.00;;;;5051294;28;20151;-63
2023/10/10 11:12:36;;;;;;;11.18;6.30;;;;;23.40;99065.00;;;;5051538;28;20073;-62
2023/10/10 11:15:07;;;;;;;10.88;5.75;;;;;23.50;99064.00;;;;5050866;28;20037;-63
2023/10/10 11:17:38;;;;;;;13.82;5.93;;;;;23.50;99059.00;;;;5051386;28;20124;-63
2023/10/10 11:20:28;;;;;;;14.30;6.20;;;;;23.50;99055.00;;;;5051457;28;20091;-62
2023/10/10 11:23:10;;;;;;;11.43;5.70;;;;;23.40;99055.00;;;;5053353;28;20106;-62
2023/10/10 11:25:58;;;;;;;10.15;5.60;;;;;23.50;99053.00;;;;5054424;28;20041;-62
2023/10/10 11:28:37;;;;;;;16.38;5.78;;;;;23.60;99044.00;;;;5054981;28;20083;-63
2023/10/10 11:31:07;;;;;;;13.55;6.78;;;;;23.70;99050.00;;;;5053829;28;20060;-62
2023/10/10 11:33:48;;;;;;;29.55;7.55;;;;;23.70;99043.00;;;;5054461;28;20045;-62
2023/10/10 11:36:24;;;;;;;14.73;6.45;;;;;23.70;99042.00;;;;5055035;28;20041;-63
2023/10/10 11:38:55;;;;;;;12.13;6.50;;;;;23.70;99050.00;;;;5053627;28;20144;-63
2023/10/10 11:41:30;;;;;;;10.68;6.00;;;;;23.80;99053.00;;;;5054871;28;20052;-62
2023/10/10 11:44:01;;;;;;;13.32;5.88;;;;;23.80;99053.00;;;;5054268;28;20132;-63
2023/10/10 11:46:29;;;;;;;12.52;6.30;;;;;23.80;99043.00;;;;5054572;28;20482;-63
2023/10/10 11:48:56;;;;;;;11.10;5.88;;;;;23.80;99040.00;;;;5053334;28;20052;-63
2023/10/10 11:51:35;;;;;;;11.10;5.57;;;;;24.00;99047.00;;;;5054607;28;20306;-62
2023/10/10 11:54:02;;;;;;;12.43;6.80;;;;;24.10;99038.00;;;;5054237;28;20044;-62
2023/10/10 11:56:34;;;;;;;14.20;6.13;;;;;24.20;99042.00;;;;5054391;28;20437;-63
2023/10/10 11:59:13;;;;;;;13.15;6.22;;;;;24.20;99037.00;;;;5053374;28;20049;-63
2023/10/10 12:01:49;;;;;;;9.43;5.95;;;;;24.20;99041.00;;;;5054253;28;20068;-62
2023/10/10 12:04:32;;;;;;;10.23;5.50;;;;;24.20;99037.00;;;;5053673;28;20106;-62
2023/10/10 12:07:00;;;;;;;12.43;6.30;;;;;24.20;99030.00;;;;5054381;28;20052;-62
2023/10/10 12:09:31;;;;;;;12.17;6.30;;;;;24.20;99025.00;;;;5054870;28;20052;-63
2023/10/10 12:12:04;;;;;;;10.13;5.72;;;;;24.20;99031.00;;;;5054365;28;20497;-62
2023/10/10 12:14:31;;;;;;;10.88;5.68;;;;;24.20;99025.00;;;;5053863;28;20414;-62
2023/10/10 12:16:59;;;;;;;12.77;6.22;;;;;24.20;99025.00;;;;5053878;28;20045;-62
2023/10/10 12:19:36;;;;;;;12.95;5.95;;;;;24.20;99019.00;;;;5054199;28;20068;-63
2023/10/10 12:22:15;;;;;;;10.73;6.00;;;;;24.30;99024.00;;;;5054379;28;20048;-62
2023/10/10 12:24:42;;;;;;;14.15;6.43;;;;;24.20;99024.00;;;;5053383;28;20126;-62
2023/10/10 12:27:09;;;;;;;11.63;5.63;;;;;24.30;99029.00;;;;5054081;28;20041;-61
2023/10/10 12:29:40;;;;;;;10.68;5.20;;;;;24.30;99028.00;;;;5054001;28;20199;-62
2023/10/10 12:32:18;;;;;;;11.98;5.10;;;;;24.20;99018.00;;;;5053949;28;20119;-62
2023/10/10 12:34:47;;;;;;;13.30;5.80;;;;;24.30;99020.00;;;;5053006;28;20041;-63
2023/10/10 12:37:17;;;;;;;12.27;4.65;;;;;24.20;99014.00;;;;5052479;28;20090;-62
2023/10/10 12:39:45;;;;;;;8.50;5.05;;;;;24.30;99011.00;;;;5053766;28;20075;-62
2023/10/10 12:42:11;;;;;;;11.25;4.78;;;;;24.30;99016.00;;;;5053710;28;20124;-63
2023/10/10 12:44:38;;;;;;;9.88;5.30;;;;;24.30;99004.00;;;;5052999;28;20602;-63
2023/10/10 12:47:07;;;;;;;10.85;5.03;;;;;24.30;98999.00;;;;5053500;28;20094;-62
2023/10/10 12:49:44;;;;;;;10.00;4.97;;;;;24.30;99008.00;;;;5053514;28;20544;-62
2023/10/10 12:52:12;;;;;;;10.73;5.57;;;;;24.40;99002.00;;;;5053645;28;20094;-63
2023/10/10 12:54:41;;;;;;;11.20;5.40;;;;;24.60;99000.00;;;;5052898;28;20524;-62
2023/10/10 12:57:13;;;;;;;9.88;5.22;;;;;24.70;98991.00;;;;5053403;28;20548;-61
2023/10/10 12:59:46;;;;;;;10.18;5.15;;;;;24.80;98991.00;;;;5053448;28;20055;-62
2023/10/10 13:02:15;;;;;;;9.93;5.03;;;;;24.80;98998.00;;;;5053254;28;20075;-62
2023/10/10 13:04:46;;;;;;;13.70;5.55;;;;;24.80;98995.00;;;;5052534;28;20067;-62
2023/10/10 13:07:16;;;;;;;8.80;4.70;;;;;24.90;98991.00;;;;5053164;28;20067;-63
2023/10/10 13:09:43;;;;;;;10.65;5.45;;;;;24.90;98992.00;;;;5053165;28;20448;-61
2023/10/10 13:12:18;;;;;;;13.75;5.75;;;;;24.90;98987.00;;;;5053134;28;20045;-62
2023/10/10 13:14:50;;;;;;;11.13;5.03;;;;;24.90;98989.00;;;;5052492;28;20045;-62
2023/10/10 13:19:52;;;;;;;11.13;5.57;;;;;25.00;98991.00;;;;5052890;28;20124;-63
2023/10/10 13:22:21;;;;;;;17.00;5.82;;;;;25.00;98991.00;;;;5052893;28;20040;-62
2023/10/10 13:24:48;;;;;;;9.77;5.05;;;;;25.00;98987.00;;;;5052072;28;20068;-62
2023/10/10 13:27:17;;;;;;;9.27;5.15;;;;;25.00;98989.00;;;;5052722;28;20049;-63
2023/10/10 13:29:44;;;;;;;12.40;6.20;;;;;25.00;98988.00;;;;5052720;28;20043;-63
2023/10/10 13:32:10;;;;;;;10.45;5.47;;;;;25.00;98988.00;;;;5052663;28;20076;-63
2023/10/10 13:34:37;;;;;;;11.80;5.95;;;;;25.00;98985.00;;;;5052147;28;20103;-63
2023/10/10 13:37:07;;;;;;;9.07;4.63;;;;;25.00;98974.00;;;;5052630;28;20401;-63
2023/10/10 13:39:43;;;;;;;11.13;6.13;;;;;25.10;98987.00;;;;5052476;28;20052;-63
2023/10/10 13:42:14;;;;;;;11.43;5.95;;;;;24.90;98985.00;;;;5052564;28;20490;-62
2023/10/10 13:44:42;;;;;;;10.82;5.28;;;;;24.80;98982.00;;;;5051413;28;20131;-62
2023/10/10 13:47:10;;;;;;;12.52;5.20;;;;;24.80;98982.00;;;;5052361;28;20516;-62
2023/10/10 13:49:44;;;;;;;9.23;4.68;;;;;24.80;98983.00;;;;5052262;28;20528;-62
2023/10/10 13:52:12;;;;;;;10.70;5.35;;;;;24.70;98982.00;;;;5051273;28;20485;-62
2023/10/10 13:54:39;;;;;;;11.00;5.35;;;;;24.70;98986.00;;;;5051795;28;20052;-62
2023/10/10 13:57:07;;;;;;;15.18;5.22;;;;;24.70;98982.00;;;;5052192;28;20075;-62
2023/10/10 13:59:33;;;;;;;12.52;6.10;;;;;24.70;98982.00;;;;5052248;28;20124;-62
2023/10/10 14:02:03;;;;;;;14.95;5.50;;;;;24.70;98981.00;;;;5052157;28;20056;-62
2023/10/10 14:04:45;;;;;;;10.25;4.80;;;;;24.70;98978.00;;;;5051590;28;20067;-63
2023/10/10 14:07:14;;;;;;;11.13;5.20;;;;;24.70;98980.00;;;;5052077;28;20044;-63
2023/10/10 14:09:41;;;;;;;8.80;4.90;;;;;24.70;98975.00;;;;5052186;28;20147;-63
2023/10/10 14:12:31;;;;;;;14.05;5.80;;;;;24.70;98975.00;;;;5052061;28;20045;-63
2023/10/10 14:14:59;;;;;;;9.57;4.78;;;;;24.80;98985.00;;;;5050362;28;20045;-63
2023/10/10 14:17:26;;;;;;;8.50;4.85;;;;;24.80;98973.00;;;;5052156;28;20049;-62
2023/10/10 14:19:53;;;;;;;11.02;6.13;;;;;24.90;98974.00;;;;5050927;28;20497;-63
2023/10/10 14:22:23;;;;;;;9.55;5.88;;;;;24.90;98968.00;;;;5052096;28;20552;-63
2023/10/10 14:24:52;;;;;;;14.05;5.10;;;;;24.90;98970.00;;;;5051380;28;20053;-63
2023/10/10 14:27:20;;;;;;;10.68;4.97;;;;;24.90;98976.00;;;;5051806;28;20124;-63
2023/10/10 14:29:47;;;;;;;11.85;5.60;;;;;24.90;98967.00;;;;5051703;28;20045;-63
2023/10/10 14:32:14;;;;;;;12.93;6.22;;;;;24.90;98974.00;;;;5051875;28;20469;-63
2023/10/10 14:35:02;;;;;;;10.55;5.10;;;;;24.90;98980.00;;;;5051243;28;20386;-62
2023/10/10 14:37:31;;;;;;;10.18;5.57;;;;;24.80;98969.00;;;;5050485;28;20494;-62
2023/10/10 14:40:18;;;;;;;10.85;6.03;;;;;24.70;98968.00;;;;5051771;28;20494;-63
2023/10/10 14:42:45;;;;;;;13.80;5.97;;;;;24.60;98971.00;;;;5051901;28;20059;-62
2023/10/10 14:45:12;;;;;;;11.43;5.75;;;;;24.60;98968.00;;;;5051343;28;20444;-61
2023/10/10 14:47:43;;;;;;;10.75;5.75;;;;;24.50;98975.00;;;;5051789;28;20041;-62
2023/10/10 14:50:12;;;;;;;10.82;5.70;;;;;24.40;98972.00;;;;5052110;28;20083;-62
2023/10/10 14:52:47;;;;;;;13.85;5.32;;;;;24.30;98973.00;;;;5051853;28;20067;-62
2023/10/10 14:55:24;;;;;;;16.02;5.68;;;;;24.30;98960.00;;;;5051029;28;20136;-62
2023/10/10 14:57:55;;;;;;;9.30;5.25;;;;;24.30;98964.00;;;;5055560;28;20087;-62
2023/10/10 15:00:29;;;;;;;10.40;5.00;;;;;24.40;98969.00;;;;5055738;28;20060;-63
2023/10/10 15:02:56;;;;;;;12.50;8.02;;;;;24.40;98965.00;;;;5055730;28;20049;-62
2023/10/10 15:05:25;;;;;;;11.20;5.30;;;;;24.40;98967.00;;;;5055011;28;20559;-61
2023/10/10 15:07:53;;;;;;;12.00;5.57;;;;;24.40;98966.00;;;;5055468;28;20390;-62
2023/10/10 15:10:26;;;;;;;10.48;5.18;;;;;24.40;98965.00;;;;5055408;28;20557;-62
2023/10/10 15:12:54;;;;;;;9.93;5.13;;;;;24.40;98969.00;;;;5055415;28;20045;-62
2023/10/10 15:15:22;;;;;;;12.38;5.03;;;;;24.40;98968.00;;;;5054698;28;20437;-63
2023/10/10 15:17:50;;;;;;;10.45;5.43;;;;;24.40;98961.00;;;;5055114;28;20048;-61
2023/10/10 15:20:18;;;;;;;11.50;4.82;;;;;24.40;98953.00;;;;5055236;28;20041;-62
2023/10/10 15:22:45;;;;;;;16.67;7.32;;;;;24.40;98957.00;;;;5055094;28;20763;-61
2023/10/10 15:25:11;;;;;;;12.40;6.72;;;;;24.30;98967.00;;;;5054358;28;20549;-61